sensor_id;sensor_type;location;lat;lon;timestamp;temperature;humidity
2653;DHT22;1336;48.692;9.144;2024-03-08T06:00:11;3.50;97.20
2653;DHT22;1336;48.692;9.144;2024-03-08T06:01:03;3.50;97.20
2653;DHT22;1336;48.692;9.144;2024-03-08T06:01:58;3.50;97.20
2653;DHT22;1336;48.692;9.144;2024-03-08T06:02:48;3.50;97.20
2653;DHT22;1336;48.692;9.144;2024-03-08T06:03:40;3.50;97.20
2653;DHT22;1336;48.692;9.144;2024-03-08T06:04:35;3.50;97.20
2653;DHT22;1336;48.692;9.144;2024-03-08T06:05:27;3.50;97.20
2653;DHT22;1336;48.692;9.144;2024-03-08T06:06:17;3.50;97.20
2653;DHT22;1336;48.692;9.144;2024-03-08T06:07:09;3.60;97.20
2653;DHT22;1336;48.692;9.144;2024-03-08T06:08:03;3.60;97.20
2653;DHT22;1336;48.692;9.144;2024-03-08T06:08:55;3.60;97.20
2653;DHT22;1336;48.692;9.144;2024-03-08T06:09:47;3.60;97.20
2653;DHT22;1336;48.692;9.144;2024-03-08T06:10:39;3.60;97.20
2653;DHT22;1336;48.692;9.144;2024-03-08T06:11:30;3.60;97.20
2653;DHT22;1336;48.692;9.144;2024-03-08T06:12:22;3.60;97.20
2653;DHT22;1336;48.692;9.144;2024-03-08T06:13:13;3.60;97.20
2653;DHT22;1336;48.692;9.144;2024-03-08T06:14:04;3.60;97.20
2653;DHT22;1336;48.692;9.144;2024-03-08T06:14:56;3.60;97.20
2653;DHT22;1336;48.692;9.144;2024-03-08T06:15:48;3.60;97.20
2653;DHT22;1336;48.692;9.144;2024-03-08T06:16:40;3.70;97.20
2653;DHT22;1336;48.692;9.144;2024-03-08T06:17:31;3.60;97.20
2653;DHT22;1336;48.692;9.144;2024-03-08T06:18:22;3.70;97.20
2653;DHT22;1336;48.692;9.144;2024-03-08T06:19:13;3.70;97.20
2653;DHT22;1336;48.692;9.144;2024-03-08T06:20:05;3.60;97.20
2653;DHT22;1336;48.692;9.144;2024-03-08T06:21:00;3.70;97.20
2653;DHT22;1336;48.692;9.144;2024-03-08T06:21:52;3.70;97.20
2653;DHT22;1336;48.692;9.144;2024-03-08T06:22:43;3.70;97.20
2653;DHT22;1336;48.692;9.144;2024-03-08T06:23:35;3.70;97.20
2653;DHT22;1336;48.692;9.144;2024-03-08T06:24:28;3.70;97.20
2653;DHT22;1336;48.692;9.144;2024-03-08T06:25:19;3.70;97.20
2653;DHT22;1336;48.692;9.144;2024-03-08T06:26:11;3.70;97.20
2653;DHT22;1336;48.692;9.144;2024-03-08T06:27:02;3.70;97.20
2653;DHT22;1336;48.692;9.144;2024-03-08T06:27:53;3.70;97.20
2653;DHT22;1336;48.692;9.144;2024-03-08T06:28:44;3.70;97.20
2653;DHT22;1336;48.692;9.144;2024-03-08T06:29:35;3.70;97.20
2653;DHT22;1336;48.692;9.144;2024-03-08T06:30:27;3.70;97.20
2653;DHT22;1336;48.692;9.144;2024-03-08T06:31:19;3.70;97.20
2653;DHT22;1336;48.692;9.144;2024-03-08T06:32:10;3.70;97.20
2653;DHT22;1336;48.692;9.144;2024-03-08T06:33:02;3.70;97.20
2653;DHT22;1336;48.692;9.144;2024-03-08T06:33:53;3.70;97.20
2653;DHT22;1336;48.692;9.144;2024-03-08T06:34:45;3.70;97.20
2653;DHT22;1336;48.692;9.144;2024-03-08T06:35:36;3.70;97.20
2653;DHT22;1336;48.692;9.144;2024-03-08T06:36:28;3.70;97.20
2653;DHT22;1336;48.692;9.144;2024-03-08T06:37:19;3.70;97.20
2653;DHT22;1336;48.692;9.144;2024-03-08T06:38:12;3.70;97.20
2653;DHT22;1336;48.692;9.144;2024-03-08T06:39:03;3.70;97.20
2653;DHT22;1336;48.692;9.144;2024-03-08T06:39:59;3.70;97.20
2653;DHT22;1336;48.692;9.144;2024-03-08T06:40:51;3.70;97.20
2653;DHT22;1336;48.692;9.144;2024-03-08T06:41:42;3.70;97.20
2653;DHT22;1336;48.692;9.144;2024-03-08T06:42:35;3.70;97.20
2653;DHT22;1336;48.692;9.144;2024-03-08T06:43:25;3.80;97.20
2653;DHT22;1336;48.692;9.144;2024-03-08T06:44:23;3.80;97.20
2653;DHT22;1336;48.692;9.144;2024-03-08T06:45:15;3.80;97.20
2653;DHT22;1336;48.692;9.144;2024-03-08T06:46:11;3.80;97.20
2653;DHT22;1336;48.692;9.144;2024-03-08T06:47:04;3.80;97.20
2653;DHT22;1336;48.692;9.144;2024-03-08T06:47:56;3.80;97.20
2653;DHT22;1336;48.692;9.144;2024-03-08T06:48:47;3.90;97.20
2653;DHT22;1336;48.692;9.144;2024-03-08T06:49:39;3.90;97.20
2653;DHT22;1336;48.692;9.144;2024-03-08T06:50:30;3.90;97.20
2653;DHT22;1336;48.692;9.144;2024-03-08T06:51:22;4.00;97.20
2653;DHT22;1336;48.692;9.144;2024-03-08T06:52:14;4.00;97.20
2653;DHT22;1336;48.692;9.144;2024-03-08T06:53:05;4.00;97.20
2653;DHT22;1336;48.692;9.144;2024-03-08T06:53:57;4.10;97.20
2653;DHT22;1336;48.692;9.144;2024-03-08T06:54:48;4.10;97.20
2653;DHT22;1336;48.692;9.144;2024-03-08T06:55:38;4.20;97.20
2653;DHT22;1336;48.692;9.144;2024-03-08T06:56:30;4.20;97.20
2653;DHT22;1336;48.692;9.144;2024-03-08T06:57:21;4.20;97.20
2653;DHT22;1336;48.692;9.144;2024-03-08T06:58:12;4.30;97.20
2653;DHT22;1336;48.692;9.144;2024-03-08T06:59:04;4.30;97.20
2653;DHT22;1336;48.692;9.144;2024-03-08T06:59:55;4.30;97.20
2653;DHT22;1336;48.692;9.144;2024-03-08T07:00:47;4.40;97.20
2653;DHT22;1336;48.692;9.144;2024-03-08T07:01:42;4.40;97.20
2653;DHT22;1336;48.692;9.144;2024-03-08T07:02:35;4.40;97.20
2653;DHT22;1336;48.692;9.144;2024-03-08T07:03:26;4.40;97.20
2653;DHT22;1336;48.692;9.144;2024-03-08T07:04:19;4.40;97.20
2653;DHT22;1336;48.692;9.144;2024-03-08T07:05:12;4.50;97.20
2653;DHT22;1336;48.692;9.144;2024-03-08T07:06:03;4.50;97.20
2653;DHT22;1336;48.692;9.144;2024-03-08T07:06:58;4.50;97.20
2653;DHT22;1336;48.692;9.144;2024-03-08T07:07:48;4.50;97.20
2653;DHT22;1336;48.692;9.144;2024-03-08T07:08:42;4.50;97.20
2653;DHT22;1336;48.692;9.144;2024-03-08T07:09:33;4.50;97.20
2653;DHT22;1336;48.692;9.144;2024-03-08T07:10:24;4.50;97.20
2653;DHT22;1336;48.692;9.144;2024-03-08T07:11:16;4.50;97.20
2653;DHT22;1336;48.692;9.144;2024-03-08T07:12:08;4.50;97.20
2653;DHT22;1336;48.692;9.144;2024-03-08T07:12:59;4.50;97.20
2653;DHT22;1336;48.692;9.144;2024-03-08T07:13:52;4.50;97.20
2653;DHT22;1336;48.692;9.144;2024-03-08T07:14:44;4.60;97.20
2653;DHT22;1336;48.692;9.144;2024-03-08T07:15:36;4.60;97.20
2653;DHT22;1336;48.692;9.144;2024-03-08T07:16:27;4.60;97.20
2653;DHT22;1336;48.692;9.144;2024-03-08T07:17:18;4.60;97.20
2653;DHT22;1336;48.692;9.144;2024-03-08T07:18:11;4.60;97.20
2653;DHT22;1336;48.692;9.144;2024-03-08T07:19:05;4.60;97.20
2653;DHT22;1336;48.692;9.144;2024-03-08T07:19:55;4.60;97.20
2653;DHT22;1336;48.692;9.144;2024-03-08T07:20:50;4.70;97.20
2653;DHT22;1336;48.692;9.144;2024-03-08T07:21:41;4.60;97.20
2653;DHT22;1336;48.692;9.144;2024-03-08T07:22:33;4.70;97.20
2653;DHT22;1336;48.692;9.144;2024-03-08T07:23:24;4.70;97.20
2653;DHT22;1336;48.692;9.144;2024-03-08T07:24:33;4.70;97.20
2653;DHT22;1336;48.692;9.144;2024-03-08T07:25:40;4.70;97.20
2653;DHT22;1336;48.692;9.144;2024-03-08T07:26:32;4.70;97.20
2653;DHT22;1336;48.692;9.144;2024-03-08T07:27:23;4.70;97.20
2653;DHT22;1336;48.692;9.144;2024-03-08T07:28:14;4.70;97.20
2653;DHT22;1336;48.692;9.144;2024-03-08T07:29:06;4.70;97.20
2653;DHT22;1336;48.692;9.144;2024-03-08T07:29:58;4.70;97.20
2653;DHT22;1336;48.692;9.144;2024-03-08T07:30:49;4.80;97.20
2653;DHT22;1336;48.692;9.144;2024-03-08T07:31:52;4.80;97.20
2653;DHT22;1336;48.692;9.144;2024-03-08T07:32:52;4.80;97.20
2653;DHT22;1336;48.692;9.144;2024-03-08T07:33:44;4.80;97.20
2653;DHT22;1336;48.692;9.144;2024-03-08T07:34:36;4.80;97.20
2653;DHT22;1336;48.692;9.144;2024-03-08T07:35:26;4.80;97.20
2653;DHT22;1336;48.692;9.144;2024-03-08T07:36:17;4.80;97.20
2653;DHT22;1336;48.692;9.144;2024-03-08T07:37:09;4.90;97.20
2653;DHT22;1336;48.692;9.144;2024-03-08T07:38:01;4.90;97.20
2653;DHT22;1336;48.692;9.144;2024-03-08T07:38:53;5.00;97.20
2653;DHT22;1336;48.692;9.144;2024-03-08T07:39:44;5.00;97.20
2653;DHT22;1336;48.692;9.144;2024-03-08T07:40:35;5.00;97.20
2653;DHT22;1336;48.692;9.144;2024-03-08T07:41:26;5.00;97.20
2653;DHT22;1336;48.692;9.144;2024-03-08T07:42:19;5.00;97.20
2653;DHT22;1336;48.692;9.144;2024-03-08T07:43:10;5.10;97.20
2653;DHT22;1336;48.692;9.144;2024-03-08T07:44:01;5.10;97.20
2653;DHT22;1336;48.692;9.144;2024-03-08T07:44:54;5.10;97.20
2653;DHT22;1336;48.692;9.144;2024-03-08T07:45:45;5.10;97.20
2653;DHT22;1336;48.692;9.144;2024-03-08T07:46:36;5.10;97.20
2653;DHT22;1336;48.692;9.144;2024-03-08T07:47:28;5.10;97.20
2653;DHT22;1336;48.692;9.144;2024-03-08T07:48:23;5.10;97.20
2653;DHT22;1336;48.692;9.144;2024-03-08T07:49:15;5.10;97.20
2653;DHT22;1336;48.692;9.144;2024-03-08T07:50:07;5.10;97.20
2653;DHT22;1336;48.692;9.144;2024-03-08T07:50:58;5.20;97.20
2653;DHT22;1336;48.692;9.144;2024-03-08T07:51:50;5.20;97.20
2653;DHT22;1336;48.692;9.144;2024-03-08T07:52:42;5.20;97.20
2653;DHT22;1336;48.692;9.144;2024-03-08T07:53:33;5.20;97.20
2653;DHT22;1336;48.692;9.144;2024-03-08T07:54:24;5.20;97.20
2653;DHT22;1336;48.692;9.144;2024-03-08T07:55:16;5.20;97.20
2653;DHT22;1336;48.692;9.144;2024-03-08T07:56:07;5.20;97.20
2653;DHT22;1336;48.692;9.144;2024-03-08T07:57:01;5.20;97.20
2653;DHT22;1336;48.692;9.144;2024-03-08T07:57:53;5.30;97.20
2653;DHT22;1336;48.692;9.144;2024-03-08T07:58:45;5.30;97.20
2653;DHT22;1336;48.692;9.144;2024-03-08T07:59:36;5.30;97.20
2653;DHT22;1336;48.692;9.144;2024-03-08T08:00:26;5.40;97.20
2653;DHT22;1336;48.692;9.144;2024-03-08T08:01:19;5.40;97.20
2653;DHT22;1336;48.692;9.144;2024-03-08T08:02:09;5.40;97.20
2653;DHT22;1336;48.692;9.144;2024-03-08T08:03:01;5.40;97.20
2653;DHT22;1336;48.692;9.144;2024-03-08T08:03:52;5.40;97.20
2653;DHT22;1336;48.692;9.144;2024-03-08T08:04:44;5.40;97.20
2653;DHT22;1336;48.692;9.144;2024-03-08T08:05:36;5.50;97.20
2653;DHT22;1336;48.692;9.144;2024-03-08T08:06:29;5.50;97.20
2653;DHT22;1336;48.692;9.144;2024-03-08T08:07:22;5.50;97.20
2653;DHT22;1336;48.692;9.144;2024-03-08T08:08:13;5.60;97.20
2653;DHT22;1336;48.692;9.144;2024-03-08T08:09:04;5.60;97.20
2653;DHT22;1336;48.692;9.144;2024-03-08T08:09:56;5.60;97.20
2653;DHT22;1336;48.692;9.144;2024-03-08T08:10:46;5.60;97.20
2653;DHT22;1336;48.692;9.144;2024-03-08T08:11:37;5.60;97.20
2653;DHT22;1336;48.692;9.144;2024-03-08T08:12:29;5.60;97.20
2653;DHT22;1336;48.692;9.144;2024-03-08T08:13:20;5.60;97.20
2653;DHT22;1336;48.692;9.144;2024-03-08T08:14:13;5.70;97.20
2653;DHT22;1336;48.692;9.144;2024-03-08T08:15:05;5.70;97.20
2653;DHT22;1336;48.692;9.144;2024-03-08T08:15:57;5.70;97.20
2653;DHT22;1336;48.692;9.144;2024-03-08T08:16:48;5.80;97.20
2653;DHT22;1336;48.692;9.144;2024-03-08T08:17:42;5.80;97.20
2653;DHT22;1336;48.692;9.144;2024-03-08T08:18:33;5.80;97.20
2653;DHT22;1336;48.692;9.144;2024-03-08T08:19:23;5.80;97.20
2653;DHT22;1336;48.692;9.144;2024-03-08T08:20:18;5.90;97.20
2653;DHT22;1336;48.692;9.144;2024-03-08T08:21:09;5.90;97.20
2653;DHT22;1336;48.692;9.144;2024-03-08T08:22:01;5.90;97.20
2653;DHT22;1336;48.692;9.144;2024-03-08T08:22:53;6.00;97.20
2653;DHT22;1336;48.692;9.144;2024-03-08T08:23:48;6.00;97.20
2653;DHT22;1336;48.692;9.144;2024-03-08T08:24:40;6.00;97.20
2653;DHT22;1336;48.692;9.144;2024-03-08T08:25:31;6.00;97.20
2653;DHT22;1336;48.692;9.144;2024-03-08T08:26:26;6.00;97.20
2653;DHT22;1336;48.692;9.144;2024-03-08T08:27:18;6.10;97.20
2653;DHT22;1336;48.692;9.144;2024-03-08T08:28:09;6.10;97.20
2653;DHT22;1336;48.692;9.144;2024-03-08T08:29:00;6.20;97.20
2653;DHT22;1336;48.692;9.144;2024-03-08T08:29:52;6.20;97.20
2653;DHT22;1336;48.692;9.144;2024-03-08T08:30:43;6.30;97.20
2653;DHT22;1336;48.692;9.144;2024-03-08T08:31:34;6.30;97.20
2653;DHT22;1336;48.692;9.144;2024-03-08T08:32:25;6.30;97.20
2653;DHT22;1336;48.692;9.144;2024-03-08T08:33:17;6.30;97.20
2653;DHT22;1336;48.692;9.144;2024-03-08T08:34:10;6.30;97.20
2653;DHT22;1336;48.692;9.144;2024-03-08T08:35:02;6.30;97.20
2653;DHT22;1336;48.692;9.144;2024-03-08T08:35:54;6.30;97.20
2653;DHT22;1336;48.692;9.144;2024-03-08T08:36:46;6.30;97.20
2653;DHT22;1336;48.692;9.144;2024-03-08T08:37:38;6.40;97.20
2653;DHT22;1336;48.692;9.144;2024-03-08T08:38:29;6.30;97.20
2653;DHT22;1336;48.692;9.144;2024-03-08T08:39:21;6.30;97.20
2653;DHT22;1336;48.692;9.144;2024-03-08T08:40:13;6.30;97.20
2653;DHT22;1336;48.692;9.144;2024-03-08T08:41:05;6.30;97.20
2653;DHT22;1336;48.692;9.144;2024-03-08T08:41:57;6.30;97.20
2653;DHT22;1336;48.692;9.144;2024-03-08T08:42:48;6.30;97.20
2653;DHT22;1336;48.692;9.144;2024-03-08T08:43:40;6.30;97.20
2653;DHT22;1336;48.692;9.144;2024-03-08T08:44:34;6.30;97.20
2653;DHT22;1336;48.692;9.144;2024-03-08T08:45:25;6.30;97.20
2653;DHT22;1336;48.692;9.144;2024-03-08T08:46:18;6.30;97.20
2653;DHT22;1336;48.692;9.144;2024-03-08T08:47:10;6.40;97.20
2653;DHT22;1336;48.692;9.144;2024-03-08T08:48:01;6.40;97.20
2653;DHT22;1336;48.692;9.144;2024-03-08T08:48:53;6.40;97.20
2653;DHT22;1336;48.692;9.144;2024-03-08T08:49:44;6.40;97.20
2653;DHT22;1336;48.692;9.144;2024-03-08T08:50:36;6.40;97.20
2653;DHT22;1336;48.692;9.144;2024-03-08T08:51:29;6.40;97.20
2653;DHT22;1336;48.692;9.144;2024-03-08T08:52:20;6.40;97.20
2653;DHT22;1336;48.692;9.144;2024-03-08T08:53:11;6.40;97.20
2653;DHT22;1336;48.692;9.144;2024-03-08T08:54:05;6.40;97.20
2653;DHT22;1336;48.692;9.144;2024-03-08T08:54:57;6.40;97.20
2653;DHT22;1336;48.692;9.144;2024-03-08T08:55:47;6.40;97.20
2653;DHT22;1336;48.692;9.144;2024-03-08T08:56:39;6.40;97.20
2653;DHT22;1336;48.692;9.144;2024-03-08T08:57:30;6.40;97.20
2653;DHT22;1336;48.692;9.144;2024-03-08T08:58:23;6.40;97.20
2653;DHT22;1336;48.692;9.144;2024-03-08T08:59:15;6.40;97.20
2653;DHT22;1336;48.692;9.144;2024-03-08T09:00:10;6.40;97.20
2653;DHT22;1336;48.692;9.144;2024-03-08T09:01:06;6.40;97.20
2653;DHT22;1336;48.692;9.144;2024-03-08T09:01:58;6.40;97.20
2653;DHT22;1336;48.692;9.144;2024-03-08T09:02:50;6.40;97.20
2653;DHT22;1336;48.692;9.144;2024-03-08T09:03:42;6.40;97.20
2653;DHT22;1336;48.692;9.144;2024-03-08T09:04:36;6.40;97.20
2653;DHT22;1336;48.692;9.144;2024-03-08T09:05:26;6.40;97.20
2653;DHT22;1336;48.692;9.144;2024-03-08T09:06:19;6.40;97.20
2653;DHT22;1336;48.692;9.144;2024-03-08T09:07:14;6.40;97.20
2653;DHT22;1336;48.692;9.144;2024-03-08T09:08:07;6.40;97.20
2653;DHT22;1336;48.692;9.144;2024-03-08T09:08:59;6.40;97.20
2653;DHT22;1336;48.692;9.144;2024-03-08T09:09:50;6.40;97.20
2653;DHT22;1336;48.692;9.144;2024-03-08T09:10:42;6.40;97.20
2653;DHT22;1336;48.692;9.144;2024-03-08T09:11:34;6.50;97.20
2653;DHT22;1336;48.692;9.144;2024-03-08T09:12:25;6.50;97.20
2653;DHT22;1336;48.692;9.144;2024-03-08T09:13:18;6.50;97.20
2653;DHT22;1336;48.692;9.144;2024-03-08T09:14:09;6.60;97.20
2653;DHT22;1336;48.692;9.144;2024-03-08T09:15:03;6.60;97.20
2653;DHT22;1336;48.692;9.144;2024-03-08T09:15:54;6.60;97.20
2653;DHT22;1336;48.692;9.144;2024-03-08T09:16:46;6.60;97.20
2653;DHT22;1336;48.692;9.144;2024-03-08T09:17:37;6.60;97.20
2653;DHT22;1336;48.692;9.144;2024-03-08T09:18:30;6.60;97.20
2653;DHT22;1336;48.692;9.144;2024-03-08T09:19:22;6.60;97.20
2653;DHT22;1336;48.692;9.144;2024-03-08T09:20:16;6.70;97.20
2653;DHT22;1336;48.692;9.144;2024-03-08T09:21:08;6.70;97.20
2653;DHT22;1336;48.692;9.144;2024-03-08T09:22:00;6.70;97.20
2653;DHT22;1336;48.692;9.144;2024-03-08T09:22:52;6.70;97.20
2653;DHT22;1336;48.692;9.144;2024-03-08T09:23:45;6.70;97.20
2653;DHT22;1336;48.692;9.144;2024-03-08T09:24:36;6.70;97.20
2653;DHT22;1336;48.692;9.144;2024-03-08T09:25:27;6.70;97.20
2653;DHT22;1336;48.692;9.144;2024-03-08T09:26:19;6.80;97.20
2653;DHT22;1336;48.692;9.144;2024-03-08T09:27:10;6.80;97.20
2653;DHT22;1336;48.692;9.144;2024-03-08T09:28:00;6.80;97.20
2653;DHT22;1336;48.692;9.144;2024-03-08T09:28:52;6.80;97.20
2653;DHT22;1336;48.692;9.144;2024-03-08T09:29:45;6.80;97.20
2653;DHT22;1336;48.692;9.144;2024-03-08T09:30:37;6.80;97.20
2653;DHT22;1336;48.692;9.144;2024-03-08T09:31:27;6.80;97.20
2653;DHT22;1336;48.692;9.144;2024-03-08T09:32:18;6.80;97.20
2653;DHT22;1336;48.692;9.144;2024-03-08T09:33:10;6.80;97.20
2653;DHT22;1336;48.692;9.144;2024-03-08T09:34:02;6.80;97.20
2653;DHT22;1336;48.692;9.144;2024-03-08T09:34:53;6.80;97.20
2653;DHT22;1336;48.692;9.144;2024-03-08T09:35:46;6.90;97.20
2653;DHT22;1336;48.692;9.144;2024-03-08T09:36:37;6.90;97.20
2653;DHT22;1336;48.692;9.144;2024-03-08T09:37:28;7.00;97.20
2653;DHT22;1336;48.692;9.144;2024-03-08T09:38:21;7.00;97.20
2653;DHT22;1336;48.692;9.144;2024-03-08T09:39:12;7.00;97.20
2653;DHT22;1336;48.692;9.144;2024-03-08T09:40:07;7.00;97.20
2653;DHT22;1336;48.692;9.144;2024-03-08T09:41:01;7.00;97.20
2653;DHT22;1336;48.692;9.144;2024-03-08T09:41:52;7.10;97.20
2653;DHT22;1336;48.692;9.144;2024-03-08T09:42:42;7.10;97.20
2653;DHT22;1336;48.692;9.144;2024-03-08T09:43:35;7.10;97.20
2653;DHT22;1336;48.692;9.144;2024-03-08T09:44:26;7.10;97.20
2653;DHT22;1336;48.692;9.144;2024-03-08T09:45:20;7.10;97.20
2653;DHT22;1336;48.692;9.144;2024-03-08T09:46:14;7.10;97.20
2653;DHT22;1336;48.692;9.144;2024-03-08T09:47:06;7.20;97.20
2653;DHT22;1336;48.692;9.144;2024-03-08T09:47:57;7.20;97.20
2653;DHT22;1336;48.692;9.144;2024-03-08T09:48:49;7.20;97.20
2653;DHT22;1336;48.692;9.144;2024-03-08T09:49:40;7.30;97.20
2653;DHT22;1336;48.692;9.144;2024-03-08T09:50:31;7.30;97.20
2653;DHT22;1336;48.692;9.144;2024-03-08T09:51:27;7.30;97.20
2653;DHT22;1336;48.692;9.144;2024-03-08T09:52:18;7.30;97.20
2653;DHT22;1336;48.692;9.144;2024-03-08T09:53:11;7.40;97.20
2653;DHT22;1336;48.692;9.144;2024-03-08T09:54:04;7.40;97.20
2653;DHT22;1336;48.692;9.144;2024-03-08T09:54:56;7.40;97.20
2653;DHT22;1336;48.692;9.144;2024-03-08T09:55:47;7.40;97.20
2653;DHT22;1336;48.692;9.144;2024-03-08T09:56:40;7.40;97.20
2653;DHT22;1336;48.692;9.144;2024-03-08T09:57:36;7.50;97.20
2653;DHT22;1336;48.692;9.144;2024-03-08T09:58:27;7.50;97.20
2653;DHT22;1336;48.692;9.144;2024-03-08T09:59:33;7.50;97.20
2653;DHT22;1336;48.692;9.144;2024-03-08T10:00:34;7.50;97.20
2653;DHT22;1336;48.692;9.144;2024-03-08T10:01:25;7.50;97.20
2653;DHT22;1336;48.692;9.144;2024-03-08T10:02:16;7.60;97.20
2653;DHT22;1336;48.692;9.144;2024-03-08T10:03:08;7.60;97.20
2653;DHT22;1336;48.692;9.144;2024-03-08T10:03:59;7.60;97.20
2653;DHT22;1336;48.692;9.144;2024-03-08T10:04:51;7.60;97.20
2653;DHT22;1336;48.692;9.144;2024-03-08T10:05:43;7.60;97.20
2653;DHT22;1336;48.692;9.144;2024-03-08T10:06:35;7.60;97.20
2653;DHT22;1336;48.692;9.144;2024-03-08T10:07:26;7.60;97.20
2653;DHT22;1336;48.692;9.144;2024-03-08T10:08:19;7.60;97.20
2653;DHT22;1336;48.692;9.144;2024-03-08T10:09:12;7.70;97.20
2653;DHT22;1336;48.692;9.144;2024-03-08T10:10:03;7.70;97.20
2653;DHT22;1336;48.692;9.144;2024-03-08T10:10:55;7.70;97.20
2653;DHT22;1336;48.692;9.144;2024-03-08T10:11:48;7.70;97.20
2653;DHT22;1336;48.692;9.144;2024-03-08T10:12:39;7.70;97.20
2653;DHT22;1336;48.692;9.144;2024-03-08T10:13:31;7.80;97.20
2653;DHT22;1336;48.692;9.144;2024-03-08T10:14:23;7.80;97.20
2653;DHT22;1336;48.692;9.144;2024-03-08T10:15:15;7.80;97.20
2653;DHT22;1336;48.692;9.144;2024-03-08T10:16:08;7.80;97.20
2653;DHT22;1336;48.692;9.144;2024-03-08T10:16:59;7.80;97.20
2653;DHT22;1336;48.692;9.144;2024-03-08T10:17:51;7.80;97.20
2653;DHT22;1336;48.692;9.144;2024-03-08T10:18:45;7.80;97.20
2653;DHT22;1336;48.692;9.144;2024-03-08T10:19:36;7.80;97.20
2653;DHT22;1336;48.692;9.144;2024-03-08T10:20:27;7.80;97.20
2653;DHT22;1336;48.692;9.144;2024-03-08T10:21:19;7.80;97.20
2653;DHT22;1336;48.692;9.144;2024-03-08T10:22:15;7.80;97.20
2653;DHT22;1336;48.692;9.144;2024-03-08T10:23:07;7.90;97.20
2653;DHT22;1336;48.692;9.144;2024-03-08T10:24:02;7.90;97.20
2653;DHT22;1336;48.692;9.144;2024-03-08T10:24:55;7.90;97.20
2653;DHT22;1336;48.692;9.144;2024-03-08T10:25:47;8.00;97.20
2653;DHT22;1336;48.692;9.144;2024-03-08T10:26:38;8.00;97.20
2653;DHT22;1336;48.692;9.144;2024-03-08T10:27:30;8.00;97.20
2653;DHT22;1336;48.692;9.144;2024-03-08T10:28:22;8.00;97.20
2653;DHT22;1336;48.692;9.144;2024-03-08T10:29:15;8.00;97.20
2653;DHT22;1336;48.692;9.144;2024-03-08T10:30:11;8.00;97.20
2653;DHT22;1336;48.692;9.144;2024-03-08T10:31:04;8.00;97.20
2653;DHT22;1336;48.692;9.144;2024-03-08T10:31:56;8.00;97.20
2653;DHT22;1336;48.692;9.144;2024-03-08T10:32:47;8.00;97.20
2653;DHT22;1336;48.692;9.144;2024-03-08T10:33:39;7.90;97.20
2653;DHT22;1336;48.692;9.144;2024-03-08T10:34:30;7.90;97.20
2653;DHT22;1336;48.692;9.144;2024-03-08T10:35:22;8.00;97.20
2653;DHT22;1336;48.692;9.144;2024-03-08T10:36:14;8.00;97.20
2653;DHT22;1336;48.692;9.144;2024-03-08T10:37:05;8.00;97.20
2653;DHT22;1336;48.692;9.144;2024-03-08T10:38:01;8.00;97.20
2653;DHT22;1336;48.692;9.144;2024-03-08T10:38:54;8.00;97.20
2653;DHT22;1336;48.692;9.144;2024-03-08T10:39:56;8.00;97.20
2653;DHT22;1336;48.692;9.144;2024-03-08T10:40:53;8.00;97.20
2653;DHT22;1336;48.692;9.144;2024-03-08T10:41:46;8.00;97.20
2653;DHT22;1336;48.692;9.144;2024-03-08T10:42:52;8.00;97.20
2653;DHT22;1336;48.692;9.144;2024-03-08T10:44:01;8.00;97.20
2653;DHT22;1336;48.692;9.144;2024-03-08T10:45:04;8.10;97.20
2653;DHT22;1336;48.692;9.144;2024-03-08T10:46:03;8.10;97.20
2653;DHT22;1336;48.692;9.144;2024-03-08T10:47:01;8.20;97.20
2653;DHT22;1336;48.692;9.144;2024-03-08T10:48:00;8.10;97.20
2653;DHT22;1336;48.692;9.144;2024-03-08T10:48:55;8.20;97.20
2653;DHT22;1336;48.692;9.144;2024-03-08T10:49:54;8.20;97.20
2653;DHT22;1336;48.692;9.144;2024-03-08T10:50:46;8.20;97.20
2653;DHT22;1336;48.692;9.144;2024-03-08T10:51:41;8.20;97.20
2653;DHT22;1336;48.692;9.144;2024-03-08T10:52:32;8.30;97.20
2653;DHT22;1336;48.692;9.144;2024-03-08T10:53:28;8.30;97.20
2653;DHT22;1336;48.692;9.144;2024-03-08T10:54:20;8.30;97.20
2653;DHT22;1336;48.692;9.144;2024-03-08T10:55:14;8.30;97.20
2653;DHT22;1336;48.692;9.144;2024-03-08T10:56:07;8.30;97.20
2653;DHT22;1336;48.692;9.144;2024-03-08T10:57:01;8.30;97.20
2653;DHT22;1336;48.692;9.144;2024-03-08T10:57:54;8.40;97.20
2653;DHT22;1336;48.692;9.144;2024-03-08T10:58:47;8.40;97.20
2653;DHT22;1336;48.692;9.144;2024-03-08T10:59:39;8.40;97.20
2653;DHT22;1336;48.692;9.144;2024-03-08T11:00:30;8.50;97.20
2653;DHT22;1336;48.692;9.144;2024-03-08T11:01:22;8.50;97.20
2653;DHT22;1336;48.692;9.144;2024-03-08T11:02:17;8.50;97.20
2653;DHT22;1336;48.692;9.144;2024-03-08T11:03:46;8.50;97.20
2653;DHT22;1336;48.692;9.144;2024-03-08T11:04:39;8.60;97.20
2653;DHT22;1336;48.692;9.144;2024-03-08T11:05:38;8.60;97.20
2653;DHT22;1336;48.692;9.144;2024-03-08T11:06:41;8.60;97.20
2653;DHT22;1336;48.692;9.144;2024-03-08T11:07:33;8.60;97.20
2653;DHT22;1336;48.692;9.144;2024-03-08T11:08:25;8.60;97.20
2653;DHT22;1336;48.692;9.144;2024-03-08T11:09:29;8.60;97.20
2653;DHT22;1336;48.692;9.144;2024-03-08T11:10:22;8.60;97.20
2653;DHT22;1336;48.692;9.144;2024-03-08T11:11:27;8.60;97.20
2653;DHT22;1336;48.692;9.144;2024-03-08T11:12:28;8.60;97.20
2653;DHT22;1336;48.692;9.144;2024-03-08T11:13:36;8.70;97.20
2653;DHT22;1336;48.692;9.144;2024-03-08T11:14:45;8.70;97.20
2653;DHT22;1336;48.692;9.144;2024-03-08T11:15:39;8.70;97.20
2653;DHT22;1336;48.692;9.144;2024-03-08T11:16:40;8.70;97.20
2653;DHT22;1336;48.692;9.144;2024-03-08T11:17:44;8.80;97.20
2653;DHT22;1336;48.692;9.144;2024-03-08T11:18:36;8.80;97.20
2653;DHT22;1336;48.692;9.144;2024-03-08T11:19:30;8.80;97.20
2653;DHT22;1336;48.692;9.144;2024-03-08T11:20:23;8.80;97.20
2653;DHT22;1336;48.692;9.144;2024-03-08T11:21:14;8.80;97.20
2653;DHT22;1336;48.692;9.144;2024-03-08T11:22:05;8.90;97.20
2653;DHT22;1336;48.692;9.144;2024-03-08T11:23:00;8.90;97.20
2653;DHT22;1336;48.692;9.144;2024-03-08T11:23:59;8.90;97.20
2653;DHT22;1336;48.692;9.144;2024-03-08T11:24:51;8.90;97.20
2653;DHT22;1336;48.692;9.144;2024-03-08T11:25:42;8.90;97.20
2653;DHT22;1336;48.692;9.144;2024-03-08T11:26:36;8.90;97.20
2653;DHT22;1336;48.692;9.144;2024-03-08T11:27:29;8.90;97.20
2653;DHT22;1336;48.692;9.144;2024-03-08T11:28:22;8.90;97.20
2653;DHT22;1336;48.692;9.144;2024-03-08T11:29:33;8.90;97.20
2653;DHT22;1336;48.692;9.144;2024-03-08T11:30:26;8.90;97.20
2653;DHT22;1336;48.692;9.144;2024-03-08T11:31:25;8.90;97.20
2653;DHT22;1336;48.692;9.144;2024-03-08T11:32:19;8.90;97.20
2653;DHT22;1336;48.692;9.144;2024-03-08T11:33:12;8.90;97.20
2653;DHT22;1336;48.692;9.144;2024-03-08T11:34:15;8.90;97.20
2653;DHT22;1336;48.692;9.144;2024-03-08T11:35:18;8.90;97.20
2653;DHT22;1336;48.692;9.144;2024-03-08T11:36:11;8.90;97.20
2653;DHT22;1336;48.692;9.144;2024-03-08T11:37:12;8.90;97.20
2653;DHT22;1336;48.692;9.144;2024-03-08T11:38:03;8.90;97.20
2653;DHT22;1336;48.692;9.144;2024-03-08T11:38:57;8.90;97.20
2653;DHT22;1336;48.692;9.144;2024-03-08T11:39:49;8.90;97.20
2653;DHT22;1336;48.692;9.144;2024-03-08T11:40:39;8.90;97.20
2653;DHT22;1336;48.692;9.144;2024-03-08T11:41:32;8.90;97.20
2653;DHT22;1336;48.692;9.144;2024-03-08T11:42:23;8.80;97.20
2653;DHT22;1336;48.692;9.144;2024-03-08T11:43:16;8.80;97.20
2653;DHT22;1336;48.692;9.144;2024-03-08T11:44:08;8.70;97.20
2653;DHT22;1336;48.692;9.144;2024-03-08T11:45:08;8.70;97.20
2653;DHT22;1336;48.692;9.144;2024-03-08T11:46:07;8.60;97.20
2653;DHT22;1336;48.692;9.144;2024-03-08T11:46:59;8.60;97.20
2653;DHT22;1336;48.692;9.144;2024-03-08T11:47:50;8.60;97.20
2653;DHT22;1336;48.692;9.144;2024-03-08T11:48:43;8.50;97.20
2653;DHT22;1336;48.692;9.144;2024-03-08T11:49:35;8.50;97.20
2653;DHT22;1336;48.692;9.144;2024-03-08T11:50:27;8.40;97.20
2653;DHT22;1336;48.692;9.144;2024-03-08T11:51:18;8.40;97.20